Time;durP1;ratioP1;P1;durP2;ratioP2;P2;SDS_P1;SDS_P2;PMS_P1;PMS_P2;Temp;Humidity;BMP_temperature;BMP_pressure;BME280_temperature;BME280_humidity;BME280_pressure;Samples;Min_cycle;Max_cycle;Signal;HPM_P1;HPM_P2
2023/07/11 00:01:22;;;;;;;8.85;4.65;;;;;;;25.30;58.27;101551.97;4992504;28;98041;-69
2023/07/11 00:03:48;;;;;;;5.60;4.00;;;;;;;25.24;58.31;101547.06;4991241;28;97702;-69
2023/07/11 00:06:17;;;;;;;9.82;4.40;;;;;;;25.22;58.23;101551.75;4990581;28;96977;-69
2023/07/11 00:08:45;;;;;;;7.43;4.90;;;;;;;25.23;58.31;101545.34;4990494;28;98884;-68
2023/07/11 00:11:15;;;;;;;6.20;4.38;;;;;;;25.23;58.09;101540.81;4991785;28;99041;-68
2023/07/11 00:13:41;;;;;;;8.02;4.47;;;;;;;25.28;58.43;101546.66;4992385;28;96836;-68
2023/07/11 00:16:11;;;;;;;5.93;4.35;;;;;;;25.29;58.23;101534.88;4988223;28;96773;-69
2023/07/11 00:18:38;;;;;;;6.38;4.57;;;;;;;25.15;59.22;101542.41;4991980;28;99454;-69
2023/07/11 00:21:05;;;;;;;8.60;4.97;;;;;;;25.20;59.00;101541.06;4990912;28;99771;-69
2023/07/11 00:23:32;;;;;;;5.70;4.65;;;;;;;25.02;59.88;101538.06;4990792;28;97081;-68
2023/07/11 00:25:59;;;;;;;5.18;4.53;;;;;;;25.13;59.66;101547.13;4985912;28;96874;-68
2023/07/11 00:28:26;;;;;;;10.73;4.88;;;;;;;25.09;60.08;101541.09;4988301;28;101246;-69
2023/07/11 00:30:52;;;;;;;12.10;4.40;;;;;;;24.91;60.40;101534.53;4989775;28;98778;-68
2023/07/11 00:33:19;;;;;;;15.00;5.40;;;;;;;24.92;60.91;101537.13;4988697;28;97061;-69
2023/07/11 00:35:48;;;;;;;7.55;4.60;;;;;;;24.89;60.74;101537.34;4989330;28;97194;-68
2023/07/11 00:38:14;;;;;;;6.57;4.95;;;;;;;24.98;60.38;101542.00;4980841;28;99670;-68
2023/07/11 00:40:42;;;;;;;5.90;4.53;;;;;;;24.72;61.49;101540.56;4991137;28;98772;-68
2023/07/11 00:43:11;;;;;;;9.02;5.47;;;;;;;24.62;61.94;101543.16;4988328;28;98605;-69
2023/07/11 00:46:02;;;;;;;6.35;4.55;;;;;;;24.53;62.15;101545.78;4990961;28;96837;-69
2023/07/11 00:48:32;;;;;;;6.30;4.72;;;;;;;24.54;61.94;101542.09;4985922;28;99247;-69
2023/07/11 00:50:58;;;;;;;5.85;5.00;;;;;;;24.50;62.07;101546.00;4988548;28;100536;-68
2023/07/11 00:53:26;;;;;;;7.95;4.53;;;;;;;24.48;61.89;101534.50;4990035;28;96827;-68
2023/07/11 00:55:54;;;;;;;5.07;4.57;;;;;;;24.47;61.92;101535.47;4987868;28;97570;-68
2023/07/11 00:58:24;;;;;;;8.63;4.82;;;;;;;24.46;61.93;101529.19;4986912;28;97769;-69
2023/07/11 01:00:51;;;;;;;5.28;4.47;;;;;;;24.42;62.39;101526.84;4987299;28;100089;-69
2023/07/11 01:03:17;;;;;;;5.70;4.88;;;;;;;24.38;62.30;101518.16;4983738;28;96893;-69
2023/07/11 01:05:44;;;;;;;7.30;4.90;;;;;;;24.23;62.67;101525.66;4986584;28;97095;-69
2023/07/11 01:08:11;;;;;;;6.68;4.55;;;;;;;24.23;63.26;101536.44;4990351;28;97700;-69
2023/07/11 01:10:37;;;;;;;8.05;4.93;;;;;;;24.23;63.16;101528.34;4988351;28;98844;-69
2023/07/11 01:13:05;;;;;;;8.00;4.82;;;;;;;24.38;62.44;101531.66;4990483;28;96744;-69
2023/07/11 01:15:33;;;;;;;7.05;5.03;;;;;;;24.25;62.76;101530.06;4989983;28;97513;-69
2023/07/11 01:17:59;;;;;;;6.47;4.55;;;;;;;24.20;63.13;101531.31;4983571;28;99065;-68
2023/07/11 01:20:26;;;;;;;8.05;5.00;;;;;;;24.27;62.47;101530.81;4979709;28;99471;-69
2023/07/11 01:22:55;;;;;;;7.88;4.72;;;;;;;24.17;63.00;101534.22;4987832;28;97245;-70
2023/07/11 01:25:23;;;;;;;7.47;4.85;;;;;;;24.33;62.71;101538.41;4988572;28;96873;-68
2023/07/11 01:27:50;;;;;;;5.63;4.75;;;;;;;24.20;63.09;101542.13;4989002;28;99521;-69
2023/07/11 01:30:19;;;;;;;6.68;4.30;;;;;;;24.16;63.36;101537.03;4982788;28;99205;-69
2023/07/11 01:32:47;;;;;;;6.40;4.45;;;;;;;24.21;63.37;101530.34;4984423;28;96841;-69
2023/07/11 01:35:14;;;;;;;6.13;4.97;;;;;;;24.38;62.65;101530.78;4986946;28;97683;-69
2023/07/11 01:37:41;;;;;;;8.18;5.03;;;;;;;24.27;63.00;101538.91;4986398;28;98903;-69
2023/07/11 01:40:10;;;;;;;5.90;4.65;;;;;;;24.30;62.88;101533.25;4987225;28;98927;-69
2023/07/11 01:42:36;;;;;;;8.73;4.90;;;;;;;24.35;62.41;101531.06;4990298;28;96739;-69
2023/07/11 01:45:03;;;;;;;6.13;4.70;;;;;;;24.16;63.31;101534.31;4989054;28;97217;-69
2023/07/11 01:47:30;;;;;;;9.45;6.10;;;;;;;24.38;62.64;101526.25;4990193;28;100730;-69
2023/07/11 01:49:56;;;;;;;8.55;5.00;;;;;;;24.36;62.55;101532.75;4982076;28;97528;-70
2023/07/11 01:52:24;;;;;;;8.27;4.90;;;;;;;24.39;62.74;101532.53;4985256;28;96806;-69
2023/07/11 01:54:51;;;;;;;6.93;5.40;;;;;;;24.20;63.06;101534.00;4987346;28;97549;-70
2023/07/11 01:57:19;;;;;;;8.18;5.85;;;;;;;24.09;63.88;101531.25;4988370;28;102038;-68
2023/07/11 01:59:46;;;;;;;8.80;5.35;;;;;;;24.22;63.21;101525.75;4991294;28;101947;-68
2023/07/11 02:02:13;;;;;;;7.88;5.20;;;;;;;24.38;62.56;101536.19;4990338;28;97126;-68
2023/07/11 02:04:40;;;;;;;7.72;5.13;;;;;;;24.23;62.78;101532.88;4990472;28;96742;-69
2023/07/11 02:07:08;;;;;;;8.20;5.13;;;;;;;24.45;62.10;101529.31;4989981;28;98181;-69
2023/07/11 02:09:35;;;;;;;8.07;5.28;;;;;;;24.37;62.30;101529.06;4988842;28;99320;-69
2023/07/11 02:12:02;;;;;;;6.47;4.75;;;;;;;24.48;61.48;101521.81;4986128;28;96876;-70
2023/07/11 02:14:30;;;;;;;8.10;5.38;;;;;;;24.19;62.83;101526.88;4991078;28;97380;-68
2023/07/11 02:16:56;;;;;;;7.30;4.75;;;;;;;24.07;62.98;101533.25;4988873;28;99340;-71
2023/07/11 02:19:25;;;;;;;9.32;5.50;;;;;;;23.88;64.29;101530.28;4988244;28;98861;-68
2023/07/11 02:21:52;;;;;;;9.43;5.72;;;;;;;24.06;63.91;101525.25;4989281;28;97103;-70
2023/07/11 02:24:19;;;;;;;8.27;5.30;;;;;;;23.86;64.64;101525.97;4994168;28;96842;-69
2023/07/11 02:26:46;;;;;;;13.00;5.43;;;;;;;23.95;64.38;101536.91;4991834;28;101611;-68
2023/07/11 02:29:13;;;;;;;8.80;5.45;;;;;;;24.00;64.55;101534.72;4990000;28;96680;-68
2023/07/11 02:31:41;;;;;;;9.15;5.50;;;;;;;23.89;64.91;101534.72;4989613;28;96835;-69
2023/07/11 02:34:07;;;;;;;9.80;6.00;;;;;;;23.70;65.46;101537.09;4988546;28;96835;-68
2023/07/11 02:36:34;;;;;;;7.88;5.45;;;;;;;23.70;65.40;101529.00;4988050;28;99054;-69
2023/07/11 02:39:01;;;;;;;7.95;5.50;;;;;;;23.80;65.17;101538.13;4993231;28;98868;-70
2023/07/11 02:41:27;;;;;;;8.65;5.35;;;;;;;23.72;65.60;101530.63;4985198;28;96744;-69
2023/07/11 02:43:54;;;;;;;8.70;5.07;;;;;;;23.71;65.17;101536.13;4993283;28;96901;-70
2023/07/11 02:46:22;;;;;;;8.80;5.90;;;;;;;23.58;65.63;101533.53;4992525;28;102244;-64
2023/07/11 02:48:49;;;;;;;6.55;4.88;;;;;;;23.57;65.95;101531.81;4989343;28;99307;-64
2023/07/11 02:51:16;;;;;;;8.75;5.47;;;;;;;23.51;65.92;101531.41;4987339;28;97191;-64
2023/07/11 02:53:42;;;;;;;7.10;5.65;;;;;;;23.48;66.26;101534.38;4993384;28;96858;-64
2023/07/11 02:56:09;;;;;;;8.57;5.18;;;;;;;23.40;66.07;101525.00;4993605;28;99019;-63
2023/07/11 02:58:35;;;;;;;8.65;4.97;;;;;;;23.27;66.67;101526.03;4987307;28;102477;-63
2023/07/11 03:01:03;;;;;;;8.60;5.07;;;;;;;23.32;66.47;101519.31;4992851;28;96875;-68
2023/07/11 03:03:30;;;;;;;8.68;5.43;;;;;;;23.35;66.46;101515.53;4991271;28;96874;-63
2023/07/11 03:05:58;;;;;;;10.52;5.35;;;;;;;23.27;66.34;101516.13;4992917;28;99148;-66
2023/07/11 03:08:24;;;;;;;7.00;5.20;;;;;;;23.47;66.20;101524.50;4990680;28;99217;-64
2023/07/11 03:10:51;;;;;;;8.23;5.50;;;;;;;23.31;66.23;101522.13;4986040;28;96870;-64
2023/07/11 03:13:18;;;;;;;9.20;5.13;;;;;;;23.29;66.68;101522.28;4990748;28;96886;-64
2023/07/11 03:15:45;;;;;;;8.18;5.43;;;;;;;23.26;66.85;101514.41;4984770;28;99340;-64
2023/07/11 03:18:12;;;;;;;9.05;5.53;;;;;;;23.28;66.89;101525.06;4990069;28;99193;-63
2023/07/11 03:20:38;;;;;;;8.55;4.68;;;;;;;23.25;66.86;101526.16;4990825;28;96873;-64
2023/07/11 03:23:08;;;;;;;8.90;5.82;;;;;;;23.34;66.46;101530.84;4986412;28;97293;-64
2023/07/11 03:25:36;;;;;;;7.55;5.22;;;;;;;23.29;66.71;101526.81;4982885;28;99204;-64
2023/07/11 03:28:02;;;;;;;9.65;6.22;;;;;;;23.25;66.78;101536.94;4988046;28;98862;-64
2023/07/11 03:30:31;;;;;;;7.70;5.22;;;;;;;23.18;67.48;101538.38;4991908;28;97016;-64
2023/07/11 03:32:57;;;;;;;10.98;5.65;;;;;;;23.23;67.08;101536.22;4990006;28;96918;-63
2023/07/11 03:35:23;;;;;;;9.63;5.85;;;;;;;23.28;66.66;101549.34;4989389;28;98993;-65
2023/07/11 03:37:50;;;;;;;7.15;4.75;;;;;;;23.32;67.12;101548.13;4984053;28;97661;-63
2023/07/11 03:40:18;;;;;;;12.23;5.68;;;;;;;23.40;66.38;101548.41;4982967;28;96726;-64
2023/07/11 03:42:44;;;;;;;9.13;5.25;;;;;;;23.52;65.98;101549.31;4989285;28;97031;-64
2023/07/11 03:45:11;;;;;;;9.27;5.78;;;;;;;23.55;65.67;101549.09;4990899;28;99051;-64
2023/07/11 03:47:37;;;;;;;9.35;5.72;;;;;;;23.69;65.49;101557.00;4992609;28;101453;-64
2023/07/11 03:50:04;;;;;;;8.40;5.38;;;;;;;23.68;65.38;101550.72;4986227;28;98815;-64
2023/07/11 03:52:31;;;;;;;7.40;5.30;;;;;;;23.77;65.11;101551.84;4988350;28;96921;-63
2023/07/11 03:54:57;;;;;;;9.95;5.18;;;;;;;23.73;65.87;101550.38;4988456;28;97841;-64
2023/07/11 03:57:25;;;;;;;9.70;5.55;;;;;;;23.85;65.10;101560.19;4990243;28;98812;-64
2023/07/11 03:59:51;;;;;;;10.68;5.75;;;;;;;23.84;65.34;101556.63;4990926;28;101035;-63
2023/07/11 04:02:17;;;;;;;7.53;5.40;;;;;;;23.95;65.22;101550.41;4992316;28;96872;-63
2023/07/11 04:04:44;;;;;;;8.65;5.10;;;;;;;24.18;64.88;101553.97;4991281;28;99473;-64
2023/07/11 04:07:10;;;;;;;11.32;6.15;;;;;;;24.05;64.86;101548.69;4991299;28;99785;-63
2023/07/11 04:09:39;;;;;;;7.72;5.30;;;;;;;24.26;64.28;101554.25;4989968;28;97853;-63
2023/07/11 04:12:07;;;;;;;9.27;5.55;;;;;;;24.32;63.98;101551.06;4990524;28;97378;-64
2023/07/11 04:14:35;;;;;;;8.18;5.78;;;;;;;24.48;62.96;101546.13;4991314;28;97926;-64
2023/07/11 04:17:01;;;;;;;8.98;5.55;;;;;;;24.43;63.00;101542.06;4988961;28;101699;-64
2023/07/11 04:19:27;;;;;;;8.52;5.30;;;;;;;24.58;62.99;101540.84;4985443;28;97894;-64
2023/07/11 04:21:54;;;;;;;8.32;5.60;;;;;;;24.65;62.71;101543.91;4991495;28;96951;-64
2023/07/11 04:24:20;;;;;;;8.73;5.75;;;;;;;24.78;61.83;101542.78;4991569;28;97841;-64
2023/07/11 04:26:47;;;;;;;8.65;5.25;;;;;;;24.97;61.36;101543.00;4990999;28;97531;-65
2023/07/11 04:29:13;;;;;;;9.90;5.28;;;;;;;25.18;61.01;101553.84;4991087;28;96912;-64
2023/07/11 04:31:41;;;;;;;9.23;5.05;;;;;;;25.26;60.39;101545.09;4983164;28;99520;-64
2023/07/11 04:34:08;;;;;;;8.50;4.65;;;;;;;25.44;59.79;101542.66;4990067;28;103055;-65
2023/07/11 04:36:34;;;;;;;7.57;4.70;;;;;;;25.54;59.55;101544.44;4992059;28;98821;-63
2023/07/11 04:39:00;;;;;;;7.47;4.45;;;;;;;25.51;58.52;101549.28;4990798;28;97234;-64
2023/07/11 04:41:27;;;;;;;7.15;4.57;;;;;;;25.42;58.95;101549.06;4987408;28;97978;-63
2023/07/11 04:43:53;;;;;;;7.50;4.25;;;;;;;25.78;57.42;101545.09;4990412;28;97620;-64
2023/07/11 04:46:20;;;;;;;9.38;3.50;;;;;;;25.90;56.02;101547.72;4990205;28;97897;-64
2023/07/11 04:48:48;;;;;;;6.40;3.38;;;;;;;25.88;54.19;101545.13;4985175;28;96941;-63
2023/07/11 04:51:14;;;;;;;9.00;2.95;;;;;;;26.10;53.36;101538.69;4988902;28;96870;-69
2023/07/11 04:53:41;;;;;;;3.10;2.40;;;;;;;26.09;52.49;101524.28;4990258;28;101342;-69
2023/07/11 04:56:09;;;;;;;9.98;3.13;;;;;;;26.12;51.84;101534.00;4990192;28;99614;-70
2023/07/11 04:58:37;;;;;;;5.88;2.65;;;;;;;26.41;50.63;101528.72;4991174;28;96748;-70
2023/07/11 05:01:08;;;;;;;4.50;2.45;;;;;;;26.94;49.28;101526.59;4988711;28;97225;-69
2023/07/11 05:03:35;;;;;;;6.90;2.83;;;;;;;27.57;47.33;101525.16;4988475;28;99418;-69
2023/07/11 05:06:03;;;;;;;5.65;2.55;;;;;;;28.42;44.06;101521.50;4988421;28;99185;-69
2023/07/11 05:08:30;;;;;;;5.65;2.78;;;;;;;29.08;41.96;101529.38;4989624;28;98757;-70
2023/07/11 05:11:01;;;;;;;6.78;2.75;;;;;;;30.33;39.17;101518.03;4989617;28;96761;-71
2023/07/11 05:13:28;;;;;;;4.22;2.80;;;;;;;30.67;38.10;101514.44;4983496;28;102109;-69
2023/07/11 05:15:59;;;;;;;4.45;2.63;;;;;;;30.02;39.20;101519.59;4983497;28;100638;-69
2023/07/11 05:18:26;;;;;;;9.75;3.78;;;;;;;29.45;40.91;101524.63;4988753;28;97344;-71
2023/07/11 05:20:54;;;;;;;5.50;2.85;;;;;;;29.21;41.63;101527.13;4988118;28;96904;-68
2023/07/11 05:23:23;;;;;;;9.50;3.40;;;;;;;29.37;41.50;101524.56;4982861;28;99216;-69
2023/07/11 05:25:50;;;;;;;8.50;3.20;;;;;;;29.21;41.71;101524.41;4987258;28;100971;-69
2023/07/11 05:28:17;;;;;;;5.05;3.03;;;;;;;28.55;43.50;101514.66;4982378;28;96932;-70
2023/07/11 05:30:43;;;;;;;7.13;3.70;;;;;;;28.48;44.65;101512.72;4989590;28;96989;-72
2023/07/11 05:33:10;;;;;;;7.25;3.47;;;;;;;28.18;46.06;101513.88;4989591;28;97719;-71
2023/07/11 05:35:37;;;;;;;4.45;2.78;;;;;;;28.25;46.46;101498.66;4989730;28;98773;-70
2023/07/11 05:38:04;;;;;;;7.65;3.33;;;;;;;28.02;47.32;101506.34;4991197;28;97231;-70
2023/07/11 05:40:32;;;;;;;6.03;4.10;;;;;;;27.95;47.79;101507.06;4990720;28;96843;-69
2023/07/11 05:42:58;;;;;;;6.93;4.35;;;;;;;27.96;47.58;101506.91;4987956;28;99426;-68
2023/07/11 05:45:25;;;;;;;10.57;4.18;;;;;;;28.04;47.57;101507.03;4991515;28;98164;-70
2023/07/11 05:47:51;;;;;;;4.82;3.85;;;;;;;27.70;48.28;101505.84;4983001;28;96698;-70
2023/07/11 05:50:21;;;;;;;7.18;3.75;;;;;;;27.93;47.90;101492.78;4990629;28;96945;-71
2023/07/11 05:52:48;;;;;;;7.85;3.80;;;;;;;27.90;48.19;101502.06;4990197;28;97804;-70
2023/07/11 05:55:14;;;;;;;6.47;4.38;;;;;;;27.96;48.18;101501.47;4992491;28;98918;-69
2023/07/11 05:57:42;;;;;;;6.13;3.60;;;;;;;28.11;47.94;101497.28;4994913;28;96808;-71
2023/07/11 06:00:10;;;;;;;4.80;3.47;;;;;;;28.19;47.04;101498.41;4986589;28;97397;-69
2023/07/11 06:02:36;;;;;;;3.90;3.40;;;;;;;27.94;47.56;101503.50;4987853;28;99013;-70
2023/07/11 06:05:03;;;;;;;7.90;3.70;;;;;;;28.01;47.58;101501.91;4993188;28;99408;-69
2023/07/11 06:07:34;;;;;;;3.67;2.95;;;;;;;27.90;47.75;101498.50;4995207;28;96660;-69
2023/07/11 06:10:02;;;;;;;5.05;3.30;;;;;;;27.72;48.11;101501.13;4995620;28;96855;-69
2023/07/11 06:12:29;;;;;;;5.18;3.20;;;;;;;27.72;47.91;101490.28;4994491;28;99516;-71
2023/07/11 06:14:58;;;;;;;5.40;3.00;;;;;;;27.89;47.64;101492.22;4994316;28;101733;-70
2023/07/11 06:17:24;;;;;;;7.85;3.35;;;;;;;28.04;47.12;101488.00;4994620;28;96964;-71
2023/07/11 06:19:51;;;;;;;8.55;3.60;;;;;;;28.11;46.85;101488.25;4994271;28;96878;-70
2023/07/11 06:22:17;;;;;;;6.07;2.70;;;;;;;28.00;46.10;101486.59;4994542;28;98224;-69
2023/07/11 06:24:44;;;;;;;6.72;2.83;;;;;;;27.74;45.49;101482.84;4990462;28;98611;-70
2023/07/11 06:27:11;;;;;;;12.07;2.90;;;;;;;28.06;45.15;101483.28;4986125;28;96806;-70
2023/07/11 06:29:37;;;;;;;4.80;2.38;;;;;;;28.20;44.35;101484.69;4994656;28;96838;-70
2023/07/11 06:32:07;;;;;;;7.85;2.40;;;;;;;28.57;44.11;101479.16;4993894;28;99178;-69
2023/07/11 06:34:34;;;;;;;7.15;2.67;;;;;;;28.64;43.74;101485.72;4988736;28;99472;-69
2023/07/11 06:37:00;;;;;;;7.05;2.35;;;;;;;28.82;42.88;101492.03;4992751;28;96838;-69
2023/07/11 06:39:26;;;;;;;5.50;2.17;;;;;;;28.89;41.44;101490.41;4994635;28;96942;-69
2023/07/11 06:41:53;;;;;;;4.75;2.33;;;;;;;28.79;42.25;101491.50;4984929;28;98996;-69
2023/07/11 06:44:21;;;;;;;4.82;2.38;;;;;;;28.85;42.10;101488.16;4992384;28;101297;-71
2023/07/11 06:46:47;;;;;;;5.13;2.40;;;;;;;28.73;41.52;101492.09;4991358;28;96748;-70
2023/07/11 06:49:15;;;;;;;2.08;1.70;;;;;;;28.99;39.89;101492.22;4991357;28;96990;-70
2023/07/11 06:51:42;;;;;;;2.92;1.50;;;;;;;28.74;40.25;101481.09;4989363;28;97807;-69
2023/07/11 06:54:08;;;;;;;4.57;2.13;;;;;;;28.89;40.33;101482.25;4991162;28;98948;-70
2023/07/11 06:56:38;;;;;;;3.40;1.60;;;;;;;28.92;40.33;101489.25;4989142;28;96881;-71
2023/07/11 06:59:08;;;;;;;7.07;2.38;;;;;;;28.70;40.64;101485.09;4995087;28;97417;-71
2023/07/11 07:01:35;;;;;;;12.60;2.30;;;;;;;29.26;40.73;101481.25;4994265;28;98091;-69
2023/07/11 07:04:01;;;;;;;9.20;2.55;;;;;;;29.15;40.74;101482.31;4993409;28;99115;-69
2023/07/11 07:06:29;;;;;;;4.97;2.08;;;;;;;29.39;40.29;101483.59;4993274;28;96747;-69
2023/07/11 07:08:56;;;;;;;4.00;1.83;;;;;;;29.26;40.24;101482.09;4993725;28;96931;-70
2023/07/11 07:11:22;;;;;;;3.55;2.10;;;;;;;29.45;39.98;101482.94;4993693;28;98157;-69
2023/07/11 07:13:49;;;;;;;1.80;1.70;;;;;;;29.30;39.65;101485.34;4993221;28;98818;-69
2023/07/11 07:16:16;;;;;;;3.63;2.10;;;;;;;29.14;40.61;101475.19;4994073;28;96695;-69
2023/07/11 07:18:44;;;;;;;4.47;2.25;;;;;;;29.17;40.12;101479.44;4989247;28;96680;-69
2023/07/11 07:21:11;;;;;;;6.68;2.40;;;;;;;29.44;38.83;101470.34;4992151;28;98974;-70
2023/07/11 07:23:38;;;;;;;6.15;2.60;;;;;;;29.64;38.69;101469.13;4989456;28;100743;-69
2023/07/11 07:26:06;;;;;;;4.53;2.47;;;;;;;29.22;39.08;101467.06;4992136;28;96851;-70
2023/07/11 07:28:34;;;;;;;4.78;2.40;;;;;;;29.67;37.97;101466.06;4992675;28;97700;-69
2023/07/11 07:31:05;;;;;;;4.70;2.40;;;;;;;29.46;37.77;101469.19;4984483;28;98878;-69
2023/07/11 07:33:32;;;;;;;3.90;2.20;;;;;;;29.79;37.27;101453.91;4984421;28;97780;-69
2023/07/11 07:36:02;;;;;;;8.13;3.15;;;;;;;30.04;37.14;101457.63;4993043;28;96886;-70
2023/07/11 07:38:31;;;;;;;3.83;1.90;;;;;;;29.77;36.89;101452.34;4987388;28;97017;-70
2023/07/11 07:41:00;;;;;;;2.95;1.85;;;;;;;30.08;35.81;101450.81;4992925;28;100427;-70
2023/07/11 07:43:28;;;;;;;3.85;2.00;;;;;;;30.22;35.79;101450.19;4984179;28;99080;-69
2023/07/11 07:45:56;;;;;;;4.50;2.17;;;;;;;30.18;36.56;101448.81;4993192;28;96979;-69
2023/07/11 07:48:23;;;;;;;3.35;1.90;;;;;;;30.54;35.77;101451.34;4993844;28;97163;-69
2023/07/11 07:50:51;;;;;;;14.98;2.47;;;;;;;30.46;35.20;101458.44;4993141;28;99484;-70
2023/07/11 07:53:18;;;;;;;5.80;1.98;;;;;;;30.39;34.47;101453.84;4989543;28;101934;-70
2023/07/11 07:55:45;;;;;;;4.30;2.20;;;;;;;30.04;35.09;101441.28;4972906;28;96939;-70
2023/07/11 07:58:13;;;;;;;4.45;1.70;;;;;;;30.20;34.64;101452.22;4973588;28;96868;-70
2023/07/11 08:00:40;;;;;;;7.55;1.95;;;;;;;30.11;33.88;101450.50;4973261;28;98925;-71
2023/07/11 08:03:06;;;;;;;5.63;1.90;;;;;;;30.28;33.71;101449.53;4971418;28;99216;-69
2023/07/11 08:05:33;;;;;;;8.93;1.80;;;;;;;30.46;33.74;101444.81;4977324;28;96938;-69
2023/07/11 08:08:00;;;;;;;3.40;1.80;;;;;;;30.41;33.32;101432.69;4983577;28;96889;-70
2023/07/11 08:10:26;;;;;;;4.63;1.85;;;;;;;30.53;32.29;101431.38;4991098;28;97990;-70
2023/07/11 08:12:53;;;;;;;4.85;1.58;;;;;;;30.51;31.75;101429.88;4990454;28;97464;-70
2023/07/11 08:15:20;;;;;;;7.55;1.60;;;;;;;30.80;32.07;101431.09;4985917;28;97194;-70
2023/07/11 08:17:47;;;;;;;3.22;1.40;;;;;;;30.67;30.51;101425.28;4991230;28;97874;-70
2023/07/11 08:20:14;;;;;;;3.85;1.40;;;;;;;31.10;30.36;101429.63;4980291;28;99761;-70
2023/07/11 08:22:40;;;;;;;4.50;1.77;;;;;;;31.16;30.22;101428.06;4990106;28;98760;-70
2023/07/11 08:25:08;;;;;;;2.80;1.33;;;;;;;31.14;28.92;101430.09;4990961;28;96994;-69
2023/07/11 08:27:34;;;;;;;3.90;1.42;;;;;;;31.02;28.69;101418.66;4985472;28;97226;-70
2023/07/11 08:30:00;;;;;;;3.50;1.70;;;;;;;31.33;29.08;101417.97;4985494;28;99292;-69
2023/07/11 08:32:28;;;;;;;12.57;2.05;;;;;;;31.28;29.63;101411.16;4989964;28;97652;-69
2023/07/11 08:34:55;;;;;;;4.07;1.60;;;;;;;31.40;29.60;101416.25;4990794;28;96895;-69
2023/07/11 08:37:21;;;;;;;7.25;1.90;;;;;;;31.52;29.86;101412.13;4983690;28;96928;-69
2023/07/11 08:39:48;;;;;;;5.93;1.75;;;;;;;31.66;29.68;101408.69;4986552;28;99426;-70
2023/07/11 08:42:28;;;;;;;6.95;1.67;;;;;;;31.40;28.94;101402.59;4989950;28;97583;-70
2023/07/11 08:45:02;;;;;;;2.97;1.33;;;;;;;31.49;27.87;101407.88;4988448;28;97170;-70
2023/07/11 08:47:35;;;;;;;3.45;1.40;;;;;;;31.59;27.69;101407.66;4987294;28;96893;-69
2023/07/11 08:50:08;;;;;;;3.40;1.50;;;;;;;31.51;27.60;101391.28;4990139;28;99486;-70
2023/07/11 08:52:35;;;;;;;5.60;1.73;;;;;;;31.56;27.37;101399.84;4984166;28;98748;-69
2023/07/11 08:55:08;;;;;;;2.58;1.42;;;;;;;32.07;27.36;101390.28;4988441;28;96909;-70
2023/07/11 08:57:38;;;;;;;2.42;1.17;;;;;;;32.01;26.79;101386.38;4990461;28;96711;-69
2023/07/11 09:00:12;;;;;;;7.00;1.50;;;;;;;31.63;27.25;101382.63;4989348;28;98945;-69
2023/07/11 09:02:51;;;;;;;3.28;1.65;;;;;;;31.61;27.45;101389.25;4983771;28;97994;-69
2023/07/11 09:05:25;;;;;;;2.72;1.10;;;;;;;31.82;27.20;101381.34;4988745;28;96819;-70
2023/07/11 09:07:53;;;;;;;2.72;1.17;;;;;;;31.81;27.17;101374.16;4978075;28;97380;-70
2023/07/11 09:10:34;;;;;;;3.33;1.50;;;;;;;31.66;27.35;101373.19;4987663;28;99259;-70
2023/07/11 09:13:13;;;;;;;5.07;1.40;;;;;;;31.46;26.88;101371.84;4987289;28;99317;-70
2023/07/11 09:15:49;;;;;;;4.75;1.40;;;;;;;31.76;26.73;101365.66;4989670;28;97256;-68
2023/07/11 09:18:33;;;;;;;2.90;1.30;;;;;;;31.76;26.66;101360.19;4988476;28;97083;-69
2023/07/11 09:21:09;;;;;;;5.38;1.23;;;;;;;31.76;26.11;101353.88;4987792;28;101556;-70
2023/07/11 09:23:45;;;;;;;2.13;1.00;;;;;;;31.53;26.28;101359.22;4987984;28;99635;-70
2023/07/11 09:26:15;;;;;;;;;;;;;;;31.40;26.60;101358.91;4988434;28;99749;-69
2023/07/11 09:28:42;;;;;;;4.55;1.75;;;;;;;31.85;26.50;101352.78;4988923;28;96880;-70
2023/07/11 09:31:13;;;;;;;3.88;1.40;;;;;;;31.99;26.76;101350.16;4987540;28;99429;-69
2023/07/11 09:33:50;;;;;;;3.72;1.52;;;;;;;32.10;25.79;101356.25;4980341;28;99420;-69
2023/07/11 09:36:21;;;;;;;2.85;1.30;;;;;;;31.49;27.03;101360.59;4983634;28;96818;-70
2023/07/11 09:38:50;;;;;;;3.30;1.40;;;;;;;30.95;28.60;101360.31;4989650;28;96824;-70
2023/07/11 09:41:21;;;;;;;3.97;1.17;;;;;;;30.87;28.26;101355.72;4988216;28;99225;-70
2023/07/11 09:43:48;;;;;;;5.90;1.30;;;;;;;31.20;27.72;101342.06;4987208;28;98518;-70
2023/07/11 09:46:16;;;;;;;5.07;1.55;;;;;;;31.26;27.45;101341.38;4979350;28;96948;-69
2023/07/11 09:48:47;;;;;;;4.50;1.42;;;;;;;31.51;27.22;101337.53;4985034;28;96976;-70
2023/07/11 09:51:24;;;;;;;5.35;1.50;;;;;;;31.59;27.19;101342.13;4985337;28;98913;-70
2023/07/11 09:53:54;;;;;;;5.90;1.50;;;;;;;31.96;27.57;101339.59;4982873;28;98520;-70
2023/07/11 09:56:21;;;;;;;4.70;1.73;;;;;;;32.24;27.00;101341.84;4977230;28;96797;-69
2023/07/11 09:58:50;;;;;;;3.85;1.67;;;;;;;31.98;27.54;101333.94;4979495;28;96866;-70
2023/07/11 10:01:22;;;;;;;4.45;1.63;;;;;;;31.81;27.30;101324.13;4979426;28;99921;-70
2023/07/11 10:03:55;;;;;;;4.63;1.67;;;;;;;31.89;27.07;101319.47;4985633;28;98036;-71
2023/07/11 10:06:39;;;;;;;2.15;1.25;;;;;;;31.91;26.96;101311.06;4982907;28;97188;-69
2023/07/11 10:09:11;;;;;;;5.60;2.13;;;;;;;32.08;27.67;101314.59;4987421;28;97166;-70
2023/07/11 10:11:38;;;;;;;3.47;1.55;;;;;;;31.93;27.73;101309.03;4989006;28;98154;-70
2023/07/11 10:14:04;;;;;;;3.70;1.63;;;;;;;31.50;28.11;101307.69;4982249;28;98724;-70
2023/07/11 10:16:33;;;;;;;3.95;1.40;;;;;;;31.15;28.49;101301.66;4989445;28;97389;-70
2023/07/11 10:19:01;;;;;;;5.38;1.60;;;;;;;31.35;28.66;101302.09;4986620;28;97543;-70
2023/07/11 10:21:32;;;;;;;3.70;1.83;;;;;;;31.48;28.41;101296.94;4987824;28;97724;-70
2023/07/11 10:23:58;;;;;;;7.72;1.90;;;;;;;31.45;28.26;101296.41;4989181;28;98916;-69
2023/07/11 10:26:27;;;;;;;5.55;1.80;;;;;;;31.49;28.11;101284.13;4985775;28;96882;-70
2023/07/11 10:29:00;;;;;;;4.68;2.00;;;;;;;31.33;28.41;101292.38;4985125;28;97890;-70
2023/07/11 10:31:31;;;;;;;4.55;1.80;;;;;;;31.13;29.13;101276.41;4981449;28;99272;-69
2023/07/11 10:34:00;;;;;;;4.45;1.58;;;;;;;31.05;29.78;101281.88;4984119;28;98849;-69
2023/07/11 10:36:33;;;;;;;5.35;1.70;;;;;;;31.54;28.94;101282.56;4983128;28;96786;-70
2023/07/11 10:39:04;;;;;;;6.18;2.10;;;;;;;31.52;28.81;101281.88;4987193;28;100300;-70
2023/07/11 10:41:34;;;;;;;5.90;1.48;;;;;;;31.80;28.37;101276.81;4981012;28;99089;-69
2023/07/11 10:44:03;;;;;;;4.03;1.90;;;;;;;32.02;28.27;101277.91;4987627;28;98793;-69
2023/07/11 10:46:38;;;;;;;4.72;1.85;;;;;;;31.94;27.90;101273.31;4983431;28;96750;-70
2023/07/11 10:49:10;;;;;;;3.45;1.85;;;;;;;31.69;28.23;101269.03;4984316;28;96794;-70
2023/07/11 10:51:44;;;;;;;3.50;1.75;;;;;;;32.02;27.97;101270.53;4987674;28;98908;-69
2023/07/11 10:54:18;;;;;;;6.05;2.05;;;;;;;31.72;28.59;101271.41;4986921;28;98843;-71
2023/07/11 10:56:49;;;;;;;4.13;2.13;;;;;;;31.62;28.49;101262.59;4990323;28;97459;-70
2023/07/11 10:59:21;;;;;;;7.10;1.90;;;;;;;31.67;28.88;101268.34;4991308;28;96781;-70
2023/07/11 11:02:00;;;;;;;5.95;2.00;;;;;;;31.40;28.55;101255.13;4990109;28;98946;-70
2023/07/11 11:04:41;;;;;;;6.60;2.33;;;;;;;31.54;29.00;101255.25;4981694;28;97718;-70
2023/07/11 11:07:15;;;;;;;4.00;1.80;;;;;;;31.58;28.96;101255.72;4989848;28;96760;-70
2023/07/11 11:09:48;;;;;;;3.58;1.70;;;;;;;31.50;28.86;101251.19;4991184;28;97668;-70
2023/07/11 11:12:24;;;;;;;4.43;1.90;;;;;;;31.46;28.23;101248.97;4986567;28;98885;-70
2023/07/11 11:14:58;;;;;;;3.88;1.48;;;;;;;31.59;28.35;101238.31;4991921;28;98983;-64
2023/07/11 11:17:35;;;;;;;4.30;1.52;;;;;;;31.60;27.93;101234.59;4986801;28;96751;-64
2023/07/11 11:20:13;;;;;;;3.33;1.70;;;;;;;31.76;27.86;101234.50;4986816;28;98824;-64
2023/07/11 11:22:54;;;;;;;3.63;1.75;;;;;;;31.52;27.76;101226.41;4982378;28;98915;-64
2023/07/11 11:25:25;;;;;;;16.23;2.40;;;;;;;31.56;27.24;101222.31;4987640;28;98731;-64
2023/07/11 11:28:05;;;;;;;6.38;1.92;;;;;;;31.68;27.14;101220.91;4982657;28;96856;-64
2023/07/11 11:30:42;;;;;;;3.13;1.67;;;;;;;31.74;27.75;101213.84;4987089;28;96959;-64